Time;durP1;ratioP1;P1;durP2;ratioP2;P2;SDS_P1;SDS_P2;PMS_P1;PMS_P2;Temp;Humidity;BMP_temperature;BMP_pressure;BME280_temperature;BME280_humidity;BME280_pressure;Samples;Min_cycle;Max_cycle;Signal;HPM_P1;HPM_P2
2023/05/31 00:01:16;;;;;;;4.30;2.38;;;14.70;68.10;;;;;;5033329;28;20021;-74
2023/05/31 00:03:43;;;;;;;4.95;2.55;;;14.70;68.10;;;;;;5034561;28;20030;-75
2023/05/31 00:06:11;;;;;;;4.40;2.20;;;14.70;68.00;;;;;;5032552;28;20499;-75
2023/05/31 00:08:39;;;;;;;4.15;2.05;;;14.70;68.00;;;;;;5031484;28;20037;-75
2023/05/31 00:11:06;;;;;;;4.18;2.40;;;14.60;67.80;;;;;;5039831;28;20115;-75
2023/05/31 00:13:32;;;;;;;3.97;2.25;;;14.60;67.50;;;;;;5033015;28;20074;-75
2023/05/31 00:15:57;;;;;;;4.13;1.90;;;14.60;67.60;;;;;;5032175;28;20022;-75
2023/05/31 00:18:23;;;;;;;5.80;2.20;;;14.50;67.50;;;;;;5034379;28;20359;-76
2023/05/31 00:20:49;;;;;;;4.05;2.10;;;14.50;67.40;;;;;;5032652;28;20025;-74
2023/05/31 00:23:15;;;;;;;4.93;2.13;;;14.50;67.10;;;;;;5032080;28;20493;-75
2023/05/31 00:25:41;;;;;;;4.72;2.20;;;14.40;67.10;;;;;;5032063;28;20044;-75
2023/05/31 00:28:06;;;;;;;3.80;2.25;;;14.40;67.00;;;;;;5034532;28;20022;-74
2023/05/31 00:30:32;;;;;;;4.80;2.35;;;14.40;66.70;;;;;;5032297;28;20025;-74
2023/05/31 00:32:58;;;;;;;5.30;2.53;;;14.30;66.70;;;;;;5033559;28;20025;-75
2023/05/31 00:35:23;;;;;;;3.47;1.80;;;14.30;66.70;;;;;;5032943;28;20029;-75
2023/05/31 00:37:49;;;;;;;3.35;2.20;;;14.30;66.60;;;;;;5032964;28;20026;-75
2023/05/31 00:40:15;;;;;;;6.70;2.00;;;14.20;66.40;;;;;;5039567;28;20026;-75
2023/05/31 00:42:40;;;;;;;1.60;1.50;;;14.20;66.20;;;;;;5048956;28;20025;-75
2023/05/31 00:45:07;;;;;;;4.10;2.10;;;14.20;66.30;;;;;;5036049;28;20041;-75
2023/05/31 00:47:34;;;;;;;4.20;2.10;;;14.20;66.30;;;;;;5034971;28;20029;-74
2023/05/31 00:50:00;;;;;;;4.00;2.15;;;14.20;66.40;;;;;;5033016;28;20017;-75
2023/05/31 00:52:27;;;;;;;3.65;2.05;;;14.10;66.80;;;;;;5033305;28;20049;-75
2023/05/31 00:54:53;;;;;;;4.50;2.42;;;14.10;66.20;;;;;;5030935;28;20120;-74
2023/05/31 00:57:18;;;;;;;3.88;2.65;;;14.10;66.10;;;;;;5034573;28;20132;-75
2023/05/31 00:59:44;;;;;;;4.53;2.42;;;14.00;66.00;;;;;;5033157;28;20525;-75
2023/05/31 01:02:11;;;;;;;5.63;2.30;;;14.00;66.00;;;;;;5032357;28;20482;-74
2023/05/31 01:04:37;;;;;;;3.30;2.22;;;14.00;66.10;;;;;;5030421;28;20026;-75
2023/05/31 01:07:04;;;;;;;4.00;2.20;;;13.90;66.10;;;;;;5031232;28;20124;-75
2023/05/31 01:09:30;;;;;;;3.50;2.00;;;13.90;66.10;;;;;;5034469;28;20033;-77
2023/05/31 01:12:27;;;;;;;3.42;2.20;;;13.90;66.50;;;;;;5042757;28;20021;-75
2023/05/31 01:14:55;;;;;;;2.75;1.90;;;13.80;66.60;;;;;;5017681;28;20022;-75
2023/05/31 01:17:30;;;;;;;4.70;2.00;;;13.80;66.60;;;;;;5032317;28;20034;-76
2023/05/31 01:20:00;;;;;;;6.75;2.50;;;13.70;66.60;;;;;;5033468;28;20037;-74
2023/05/31 01:22:59;;;;;;;6.72;2.20;;;13.70;66.80;;;;;;5032747;28;20521;-75
2023/05/31 01:25:50;;;;;;;4.90;1.90;;;13.60;67.00;;;;;;5018548;28;20024;-75
2023/05/31 01:28:17;;;;;;;5.35;2.47;;;13.50;67.00;;;;;;5013510;28;20025;-74
2023/05/31 01:30:45;;;;;;;4.03;1.80;;;13.50;67.10;;;;;;5037207;28;20109;-74
2023/05/31 01:33:12;;;;;;;2.95;1.60;;;13.50;67.20;;;;;;5035279;28;20105;-74
2023/05/31 01:35:38;;;;;;;4.07;2.00;;;13.40;67.30;;;;;;5038261;28;20060;-75
2023/05/31 01:38:03;;;;;;;3.33;1.67;;;13.40;67.40;;;;;;5057604;28;20104;-75
2023/05/31 01:40:30;;;;;;;3.25;1.83;;;13.40;67.20;;;;;;5047862;28;21523;-75
2023/05/31 01:42:57;;;;;;;3.38;1.42;;;13.40;67.20;;;;;;5036439;28;20022;-74
2023/05/31 01:45:24;;;;;;;1.83;1.33;;;13.40;67.20;;;;;;5035750;28;20018;-74
2023/05/31 01:47:58;;;;;;;1.38;1.27;;;13.40;67.20;;;;;;5037027;28;20025;-74
2023/05/31 01:50:24;;;;;;;2.10;1.30;;;13.40;67.20;;;;;;5035402;28;20112;-75
2023/05/31 01:52:50;;;;;;;2.08;1.08;;;13.40;67.00;;;;;;5035126;28;20499;-74
2023/05/31 01:55:16;;;;;;;1.58;1.30;;;13.30;66.80;;;;;;5034499;28;20048;-76
2023/05/31 01:57:44;;;;;;;1.65;1.40;;;13.40;66.80;;;;;;5035096;28;20030;-75
2023/05/31 02:00:12;;;;;;;3.08;1.58;;;13.40;66.70;;;;;;5035607;28;20014;-74
2023/05/31 02:02:42;;;;;;;2.05;1.00;;;13.30;66.80;;;;;;5035526;28;20017;-74
2023/05/31 02:05:11;;;;;;;1.98;1.35;;;13.30;66.90;;;;;;5020035;28;20030;-75
2023/05/31 02:07:37;;;;;;;1.65;1.50;;;13.20;66.90;;;;;;5014733;28;20382;-75
2023/05/31 02:10:04;;;;;;;1.25;1.15;;;13.20;67.20;;;;;;5036166;28;20545;-75
2023/05/31 02:12:30;;;;;;;2.47;1.42;;;13.10;67.20;;;;;;5050302;28;20021;-75
2023/05/31 02:14:55;;;;;;;3.80;1.98;;;13.10;67.20;;;;;;5045962;28;20505;-75
2023/05/31 02:17:24;;;;;;;2.75;1.23;;;13.10;67.30;;;;;;5034178;28;20025;-75
2023/05/31 02:19:53;;;;;;;1.77;1.38;;;13.10;67.60;;;;;;5036636;28;20075;-73
2023/05/31 02:22:20;;;;;;;1.45;1.20;;;13.00;68.00;;;;;;5035237;28;20022;-75
2023/05/31 02:24:46;;;;;;;1.98;0.95;;;13.00;67.80;;;;;;5032681;28;20131;-75
2023/05/31 02:27:12;;;;;;;2.58;1.23;;;13.00;67.90;;;;;;5034623;28;20056;-75
2023/05/31 02:29:38;;;;;;;2.80;1.08;;;12.90;68.50;;;;;;5034745;28;20025;-75
2023/05/31 02:32:04;;;;;;;2.15;1.15;;;12.90;68.20;;;;;;5036665;28;20037;-75
2023/05/31 02:34:30;;;;;;;1.65;1.05;;;12.90;68.30;;;;;;5034651;28;20112;-75
2023/05/31 02:36:56;;;;;;;2.78;1.42;;;12.90;68.50;;;;;;5036614;28;20504;-74
2023/05/31 02:39:21;;;;;;;2.42;1.58;;;12.80;68.50;;;;;;5040847;28;20048;-75
2023/05/31 02:41:47;;;;;;;2.80;1.40;;;12.80;68.60;;;;;;5043417;28;20084;-74
2023/05/31 02:44:13;;;;;;;2.17;1.98;;;12.80;69.00;;;;;;5044691;28;20049;-75
2023/05/31 02:46:39;;;;;;;1.88;1.50;;;12.70;69.60;;;;;;5034482;28;20489;-74
2023/05/31 02:49:06;;;;;;;1.92;1.45;;;12.70;69.20;;;;;;5034187;28;20055;-75
2023/05/31 02:51:32;;;;;;;3.20;1.80;;;12.70;69.30;;;;;;5034149;28;20029;-75
2023/05/31 02:53:58;;;;;;;2.33;1.30;;;12.60;69.50;;;;;;5032999;28;20037;-75
2023/05/31 02:56:24;;;;;;;2.30;1.30;;;12.60;69.80;;;;;;5034165;28;20025;-74
2023/05/31 02:58:50;;;;;;;2.28;1.60;;;12.50;70.10;;;;;;5033770;28;20025;-75
2023/05/31 03:01:16;;;;;;;1.27;1.17;;;12.50;70.30;;;;;;5034058;28;20122;-75
2023/05/31 03:03:41;;;;;;;1.95;1.30;;;12.50;70.70;;;;;;5034443;28;20037;-75
2023/05/31 03:06:07;;;;;;;1.15;1.00;;;12.40;70.90;;;;;;5033609;28;20029;-74
2023/05/31 03:08:33;;;;;;;1.35;1.00;;;12.40;71.20;;;;;;5033736;28;20037;-75
2023/05/31 03:10:58;;;;;;;2.38;1.27;;;12.40;71.50;;;;;;5045023;28;20390;-75
2023/05/31 03:13:24;;;;;;;1.42;1.20;;;12.30;71.60;;;;;;5034478;28;20032;-75
2023/05/31 03:15:50;;;;;;;3.97;1.95;;;12.30;71.90;;;;;;5033781;28;20071;-75
2023/05/31 03:18:16;;;;;;;1.42;1.20;;;12.20;72.10;;;;;;5034265;28;20033;-75
2023/05/31 03:20:42;;;;;;;1.70;1.30;;;12.20;72.40;;;;;;5035611;28;20044;-75
2023/05/31 03:23:08;;;;;;;2.40;1.83;;;12.10;72.50;;;;;;5034814;28;20034;-75
2023/05/31 03:25:33;;;;;;;3.30;1.50;;;12.10;72.50;;;;;;5034808;28;20087;-75
2023/05/31 03:28:00;;;;;;;2.92;1.40;;;12.10;72.70;;;;;;5037068;28;20018;-75
2023/05/31 03:30:25;;;;;;;2.47;1.83;;;12.10;72.80;;;;;;5037203;28;20032;-75
2023/05/31 03:32:51;;;;;;;2.15;1.73;;;12.10;72.80;;;;;;5036225;28;20022;-75
2023/05/31 03:35:17;;;;;;;9.73;2.03;;;12.10;72.80;;;;;;5035231;28;20021;-75
2023/05/31 03:37:43;;;;;;;6.55;2.50;;;12.10;72.70;;;;;;5038307;28;20334;-75
2023/05/31 03:40:09;;;;;;;2.72;1.77;;;12.10;72.30;;;;;;5055053;28;20022;-74
2023/05/31 03:42:35;;;;;;;2.05;1.58;;;12.10;72.30;;;;;;5060658;28;20075;-75
2023/05/31 03:45:01;;;;;;;2.30;1.58;;;12.10;72.30;;;;;;5036370;28;20033;-75
2023/05/31 03:47:27;;;;;;;3.88;2.05;;;12.20;72.20;;;;;;5035165;28;20339;-75
2023/05/31 03:49:53;;;;;;;6.60;2.55;;;12.20;72.10;;;;;;5036050;28;20044;-74
2023/05/31 03:52:19;;;;;;;4.45;2.40;;;12.20;72.00;;;;;;5036592;28;20526;-74
2023/05/31 03:54:46;;;;;;;4.65;2.05;;;12.20;71.90;;;;;;5037569;28;20027;-75
2023/05/31 03:57:12;;;;;;;4.07;2.03;;;12.20;72.00;;;;;;5036082;28;20103;-76
2023/05/31 03:59:38;;;;;;;4.40;1.90;;;12.20;71.90;;;;;;5033899;28;20391;-75
2023/05/31 04:02:04;;;;;;;3.25;1.75;;;12.30;72.00;;;;;;5035725;28;20400;-75
2023/05/31 04:04:30;;;;;;;3.83;1.70;;;12.30;72.00;;;;;;5035744;28;20035;-74
2023/05/31 04:06:55;;;;;;;2.42;1.70;;;12.30;72.00;;;;;;5036066;28;20025;-74
2023/05/31 04:09:23;;;;;;;4.03;2.25;;;12.30;72.10;;;;;;5039248;28;20028;-75
2023/05/31 04:11:49;;;;;;;4.75;2.10;;;12.40;72.10;;;;;;5046074;28;20025;-74
2023/05/31 04:14:15;;;;;;;4.50;1.75;;;12.40;72.40;;;;;;5033778;28;20116;-75
2023/05/31 04:16:41;;;;;;;3.22;1.52;;;12.40;72.50;;;;;;5032887;28;20501;-75
2023/05/31 04:19:06;;;;;;;2.67;1.70;;;12.40;72.60;;;;;;5032646;28;20061;-75
2023/05/31 04:21:32;;;;;;;3.00;1.58;;;12.40;72.50;;;;;;5033179;28;20493;-75
2023/05/31 04:23:58;;;;;;;2.88;1.77;;;12.40;72.60;;;;;;5032157;28;20105;-74
2023/05/31 04:26:25;;;;;;;7.55;2.42;;;12.40;72.40;;;;;;5035211;28;20534;-75
2023/05/31 04:28:53;;;;;;;4.28;2.40;;;12.50;72.30;;;;;;5034778;28;20132;-75
2023/05/31 04:31:20;;;;;;;2.50;1.60;;;12.60;72.20;;;;;;5034891;28;20018;-74
2023/05/31 04:33:46;;;;;;;3.63;1.85;;;12.60;72.00;;;;;;5035827;28;20060;-74
2023/05/31 04:36:11;;;;;;;2.35;1.40;;;12.60;71.70;;;;;;5033404;28;20022;-75
2023/05/31 04:38:39;;;;;;;3.30;2.13;;;12.80;71.30;;;;;;5035376;28;20028;-74
2023/05/31 04:41:06;;;;;;;2.47;1.60;;;12.90;70.80;;;;;;5046490;28;20014;-75
2023/05/31 04:43:31;;;;;;;2.53;1.58;;;12.90;70.40;;;;;;5043817;28;20036;-75
2023/05/31 04:46:00;;;;;;;2.30;1.67;;;13.00;70.10;;;;;;5031714;28;20034;-74
2023/05/31 04:48:26;;;;;;;4.30;1.52;;;13.10;69.80;;;;;;5033099;28;20025;-75
2023/05/31 04:50:54;;;;;;;2.50;1.33;;;13.20;69.50;;;;;;5032075;28;20041;-75
2023/05/31 04:53:20;;;;;;;4.20;1.90;;;13.30;69.10;;;;;;5033022;28;20025;-76
2023/05/31 04:55:46;;;;;;;3.63;1.48;;;13.40;68.90;;;;;;5032239;28;20390;-75
2023/05/31 04:58:12;;;;;;;2.95;1.52;;;13.40;68.60;;;;;;5034919;28;20041;-75
2023/05/31 05:00:37;;;;;;;3.97;1.80;;;13.50;68.40;;;;;;5033146;28;20030;-74
2023/05/31 05:03:03;;;;;;;3.25;1.75;;;13.60;68.00;;;;;;5034323;28;20382;-75
2023/05/31 05:05:29;;;;;;;2.88;1.30;;;13.60;67.70;;;;;;5035458;28;20056;-75
2023/05/31 05:07:54;;;;;;;2.85;2.10;;;14.20;67.90;;;;;;5036895;28;20041;-75
2023/05/31 05:10:20;;;;;;;3.22;1.88;;;15.80;64.30;;;;;;5045695;28;20120;-75
2023/05/31 05:12:46;;;;;;;4.40;1.92;;;17.30;60.40;;;;;;5038797;28;20117;-75
2023/05/31 05:15:11;;;;;;;3.45;1.80;;;18.80;56.80;;;;;;5037392;28;20033;-75
2023/05/31 05:17:37;;;;;;;7.90;2.13;;;19.90;53.70;;;;;;5036888;28;20526;-75
2023/05/31 05:20:08;;;;;;;3.90;2.00;;;20.60;51.00;;;;;;5037937;28;20022;-75
2023/05/31 05:22:33;;;;;;;4.75;1.95;;;21.40;50.70;;;;;;5036904;28;20382;-76
2023/05/31 05:25:00;;;;;;;3.22;1.95;;;22.40;48.50;;;;;;5035560;28;20045;-75
2023/05/31 05:27:25;;;;;;;2.70;2.00;;;22.60;47.60;;;;;;5036697;28;20029;-75
2023/05/31 05:29:51;;;;;;;3.95;1.88;;;22.80;47.20;;;;;;5036414;28;20037;-75
2023/05/31 05:32:17;;;;;;;2.47;1.55;;;23.40;47.30;;;;;;5036762;28;20034;-75
2023/05/31 05:34:42;;;;;;;2.95;2.10;;;24.10;46.20;;;;;;5036437;28;20045;-75
2023/05/31 05:37:08;;;;;;;3.45;2.22;;;24.70;43.90;;;;;;5036326;28;20029;-76
2023/05/31 05:39:34;;;;;;;2.65;2.13;;;24.50;43.20;;;;;;5039713;28;20033;-76
2023/05/31 05:42:01;;;;;;;2.90;1.58;;;;;;;;;;5060817;28;20044;-75
2023/05/31 05:44:27;;;;;;;2.65;2.00;;;24.60;43.40;;;;;;5042179;28;20036;-75
2023/05/31 05:46:52;;;;;;;4.47;2.00;;;25.00;43.60;;;;;;5036003;28;20482;-76
2023/05/31 05:49:18;;;;;;;6.57;2.72;;;25.40;42.50;;;;;;5035010;28;20032;-77
2023/05/31 05:51:43;;;;;;;5.40;2.50;;;25.40;41.70;;;;;;5036223;28;20044;-74
2023/05/31 05:54:09;;;;;;;4.03;2.50;;;24.80;41.60;;;;;;5036488;28;20029;-76
2023/05/31 05:56:35;;;;;;;3.95;2.30;;;24.30;42.70;;;;;;5034950;28;20022;-75
2023/05/31 05:59:00;;;;;;;4.43;1.98;;;24.30;43.50;;;;;;5035746;28;20048;-76
2023/05/31 06:01:26;;;;;;;4.03;2.35;;;24.50;43.10;;;;;;5035941;28;20123;-75
2023/05/31 06:03:54;;;;;;;4.18;2.25;;;24.60;42.90;;;;;;5031641;28;20030;-75
2023/05/31 06:06:20;;;;;;;1.90;1.60;;;24.90;42.80;;;;;;5017183;28;20057;-76
2023/05/31 06:08:46;;;;;;;2.28;1.50;;;25.30;42.40;;;;;;5021523;28;20033;-75
2023/05/31 06:11:15;;;;;;;6.38;2.40;;;25.90;42.00;;;;;;5045703;28;20096;-76
2023/05/31 06:13:42;;;;;;;3.67;2.13;;;26.40;40.60;;;;;;5034398;28;20037;-76
2023/05/31 06:16:08;;;;;;;4.22;2.20;;;26.60;40.40;;;;;;5035033;28;20457;-74
2023/05/31 06:18:34;;;;;;;8.38;2.70;;;26.30;40.20;;;;;;5033563;28;20033;-75
2023/05/31 06:21:00;;;;;;;6.53;2.28;;;26.00;40.40;;;;;;5034984;28;20028;-76
2023/05/31 06:23:26;;;;;;;3.03;2.10;;;25.70;40.70;;;;;;5032423;28;20030;-76
2023/05/31 06:25:52;;;;;;;2.10;1.90;;;25.60;41.70;;;;;;5034113;28;20057;-76
2023/05/31 06:28:18;;;;;;;6.25;1.80;;;26.10;41.60;;;;;;5034449;28;20044;-76
2023/05/31 06:30:44;;;;;;;6.30;2.40;;;26.50;40.50;;;;;;5033507;28;20482;-75
2023/05/31 06:33:09;;;;;;;4.38;1.85;;;26.60;40.70;;;;;;5034537;28;20044;-75
2023/05/31 06:35:35;;;;;;;2.72;1.80;;;27.00;40.30;;;;;;5034310;28;20097;-75
2023/05/31 06:38:03;;;;;;;3.50;1.75;;;27.30;39.90;;;;;;5034369;28;20036;-76
2023/05/31 06:40:29;;;;;;;7.03;2.25;;;27.40;39.80;;;;;;5035070;28;20025;-75
2023/05/31 06:42:55;;;;;;;4.97;2.45;;;27.30;39.20;;;;;;5035670;28;20018;-75
2023/05/31 06:45:21;;;;;;;5.68;2.33;;;26.80;39.90;;;;;;5034061;28;20030;-75
2023/05/31 06:47:47;;;;;;;5.07;2.03;;;26.60;40.40;;;;;;5034680;28;20104;-75
2023/05/31 06:50:13;;;;;;;4.82;2.65;;;26.30;40.90;;;;;;5035149;28;20048;-76
2023/05/31 06:52:41;;;;;;;3.67;2.40;;;26.30;40.50;;;;;;5033407;28;20026;-75
2023/05/31 06:55:08;;;;;;;3.63;2.50;;;26.30;41.00;;;;;;5034200;28;20496;-75
2023/05/31 06:57:33;;;;;;;3.88;2.30;;;26.40;41.60;;;;;;5035502;28;20413;-76
2023/05/31 06:59:59;;;;;;;2.72;1.90;;;26.70;41.70;;;;;;5043965;28;20036;-75
2023/05/31 07:02:27;;;;;;;2.13;1.30;;;27.20;40.70;;;;;;5038548;28;20422;-75
2023/05/31 07:04:52;;;;;;;2.08;1.83;;;27.70;40.30;;;;;;5033106;28;20125;-76
2023/05/31 07:07:18;;;;;;;3.80;1.67;;;27.60;39.20;;;;;;5035046;28;20276;-75
2023/05/31 07:09:44;;;;;;;3.72;2.05;;;27.20;40.60;;;;;;5032863;28;20395;-75
2023/05/31 07:12:09;;;;;;;5.13;1.90;;;26.90;40.30;;;;;;5035537;28;20483;-76
2023/05/31 07:14:36;;;;;;;2.60;1.70;;;25.70;40.80;;;;;;5034003;28;20072;-75
2023/05/31 07:17:02;;;;;;;3.25;1.95;;;24.00;43.10;;;;;;5034804;28;20025;-76
2023/05/31 07:19:29;;;;;;;8.35;2.95;;;22.40;45.80;;;;;;5033941;28;20069;-76
2023/05/31 07:21:54;;;;;;;6.43;2.30;;;21.20;48.10;;;;;;5033348;28;20022;-77
2023/05/31 07:24:20;;;;;;;6.78;2.72;;;20.20;50.30;;;;;;5032070;28;20045;-75
2023/05/31 07:26:46;;;;;;;6.43;2.67;;;19.60;51.80;;;;;;5034172;28;20201;-75
2023/05/31 07:29:12;;;;;;;6.07;2.33;;;19.10;53.00;;;;;;5038404;28;20025;-74
2023/05/31 07:31:37;;;;;;;3.97;2.38;;;18.80;53.90;;;;;;5042439;28;20171;-75
2023/05/31 07:34:03;;;;;;;7.85;2.70;;;18.60;54.60;;;;;;5033187;28;20037;-75
2023/05/31 07:36:30;;;;;;;5.82;2.30;;;18.50;55.00;;;;;;5034513;28;20099;-76
2023/05/31 07:38:55;;;;;;;6.70;3.53;;;18.50;55.10;;;;;;5035126;28;20072;-76
2023/05/31 07:41:21;;;;;;;5.47;2.00;;;18.50;55.40;;;;;;5041998;28;20010;-74
2023/05/31 07:43:47;;;;;;;3.28;2.10;;;18.60;55.50;;;;;;5047516;28;20375;-74
2023/05/31 07:46:13;;;;;;;3.45;2.15;;;18.70;55.30;;;;;;5032511;28;20055;-74
2023/05/31 07:48:38;;;;;;;6.35;2.33;;;18.80;55.30;;;;;;5034462;28;20022;-75
2023/05/31 07:51:04;;;;;;;5.35;2.38;;;18.90;55.30;;;;;;5033422;28;20029;-75
2023/05/31 07:53:30;;;;;;;7.97;2.53;;;18.90;55.20;;;;;;5033591;28;20025;-75
2023/05/31 07:55:57;;;;;;;3.90;2.05;;;18.90;55.40;;;;;;5035282;28;20091;-76
2023/05/31 07:58:22;;;;;;;4.35;2.33;;;19.00;55.30;;;;;;5032180;28;20030;-75
2023/05/31 08:00:51;;;;;;;4.43;2.28;;;19.10;55.10;;;;;;5033457;28;20052;-75
2023/05/31 08:03:17;;;;;;;5.38;2.40;;;19.10;54.00;;;;;;5035854;28;20037;-75
2023/05/31 08:05:43;;;;;;;6.70;2.65;;;19.10;54.10;;;;;;5043460;28;20398;-75
2023/05/31 08:08:09;;;;;;;4.10;2.05;;;19.00;54.70;;;;;;5033822;28;20029;-75
2023/05/31 08:10:35;;;;;;;7.18;3.38;;;19.00;55.20;;;;;;5033728;28;20032;-74
2023/05/31 08:13:00;;;;;;;6.05;2.65;;;19.10;55.30;;;;;;5023626;28;20033;-75
2023/05/31 08:15:26;;;;;;;5.07;2.70;;;19.00;55.20;;;;;;5030125;28;20537;-75
2023/05/31 08:17:51;;;;;;;7.50;2.92;;;19.20;55.40;;;;;;5014590;28;20026;-74
2023/05/31 08:20:17;;;;;;;8.80;3.00;;;19.30;54.80;;;;;;5033018;28;20051;-75
2023/05/31 08:22:44;;;;;;;4.07;2.28;;;19.40;54.00;;;;;;5031721;28;20024;-75
2023/05/31 08:25:12;;;;;;;6.22;2.65;;;19.30;53.90;;;;;;5032514;28;20104;-75
2023/05/31 08:27:40;;;;;;;6.22;2.72;;;19.30;53.90;;;;;;5030180;28;20061;-75
2023/05/31 08:30:09;;;;;;;10.27;2.33;;;19.30;53.90;;;;;;5028440;28;20120;-75
2023/05/31 08:32:35;;;;;;;5.57;2.85;;;19.40;54.00;;;;;;5020806;28;20041;-76
2023/05/31 08:35:01;;;;;;;8.82;2.90;;;19.60;53.40;;;;;;5045237;28;20473;-75
2023/05/31 08:37:27;;;;;;;6.55;2.50;;;19.70;53.10;;;;;;5033861;28;20073;-74
2023/05/31 08:39:52;;;;;;;5.43;2.22;;;19.70;52.50;;;;;;5038863;28;20461;-74
2023/05/31 08:42:28;;;;;;;3.15;1.80;;;19.70;52.20;;;;;;5037675;28;20467;-75
2023/05/31 08:44:54;;;;;;;3.88;2.30;;;19.90;52.70;;;;;;5029530;28;20024;-75
2023/05/31 08:47:27;;;;;;;7.07;2.80;;;20.00;52.60;;;;;;5018364;28;20030;-75
2023/05/31 08:49:54;;;;;;;7.60;2.67;;;20.30;52.00;;;;;;5020820;28;20037;-76
2023/05/31 08:52:21;;;;;;;4.35;2.40;;;20.40;51.40;;;;;;5019916;28;20037;-75
2023/05/31 08:54:48;;;;;;;6.82;2.60;;;20.30;51.10;;;;;;5022686;28;20017;-75
2023/05/31 08:57:15;;;;;;;2.95;2.00;;;20.40;50.50;;;;;;5018167;28;20029;-75
2023/05/31 08:59:42;;;;;;;5.18;1.92;;;20.40;50.10;;;;;;5028849;28;20071;-75
2023/05/31 09:02:10;;;;;;;5.15;2.10;;;20.60;50.20;;;;;;5033755;28;20386;-76
2023/05/31 09:04:36;;;;;;;7.32;2.70;;;20.80;49.90;;;;;;5041867;28;20025;-74
2023/05/31 09:07:01;;;;;;;3.42;2.22;;;21.00;49.50;;;;;;5039291;28;20474;-75
2023/05/31 09:09:27;;;;;;;3.35;2.00;;;21.00;49.30;;;;;;5036050;28;20060;-75
2023/05/31 09:11:53;;;;;;;5.07;2.58;;;21.10;49.50;;;;;;5036654;28;20021;-75
2023/05/31 09:14:19;;;;;;;8.07;2.67;;;21.10;49.00;;;;;;5037371;28;20033;-74
2023/05/31 09:16:45;;;;;;;9.02;3.17;;;21.10;49.30;;;;;;5037419;28;20037;-76
2023/05/31 09:19:11;;;;;;;4.70;2.28;;;21.10;49.20;;;;;;5036128;28;20032;-75
2023/05/31 09:21:42;;;;;;;4.20;2.30;;;21.00;48.80;;;;;;5047577;22;20149;-82
2023/05/31 09:24:10;;;;;;;3.85;2.60;;;21.10;48.70;;;;;;5023286;28;20033;-83
2023/05/31 09:26:44;;;;;;;3.55;2.00;;;21.20;47.90;;;;;;5024790;28;20025;-81
2023/05/31 09:29:10;;;;;;;2.83;2.00;;;21.30;47.70;;;;;;5023685;28;20022;-83
2023/05/31 09:31:36;;;;;;;5.28;2.13;;;21.50;47.60;;;;;;5023599;28;20034;-80
2023/05/31 09:34:01;;;;;;;3.90;1.88;;;21.70;47.00;;;;;;5049234;28;20030;-84
2023/05/31 09:36:30;;;;;;;4.60;2.30;;;21.80;46.70;;;;;;5070860;28;20033;-81
2023/05/31 09:39:08;;;;;;;6.45;2.13;;;21.80;46.70;;;;;;5036250;28;20112;-80
2023/05/31 09:41:34;;;;;;;7.43;2.63;;;21.80;47.30;;;;;;5032098;28;20037;-81
2023/05/31 09:44:01;;;;;;;4.57;2.28;;;21.80;47.40;;;;;;5039506;28;20038;-82
2023/05/31 09:46:27;;;;;;;8.68;2.67;;;21.80;47.40;;;;;;5036238;28;20060;-81
2023/05/31 09:49:06;;;;;;;7.63;2.47;;;21.90;46.70;;;;;;5026926;28;20037;-82
2023/05/31 09:51:32;;;;;;;3.50;2.00;;;21.80;46.50;;;;;;5033651;28;20069;-81
2023/05/31 09:54:01;;;;;;;5.40;2.80;;;21.80;46.50;;;;;;5029037;28;20466;-81
2023/05/31 09:56:28;;;;;;;6.88;2.35;;;22.00;46.40;;;;;;5054008;28;20025;-80
2023/05/31 09:58:57;;;;;;;6.00;2.63;;;22.00;46.00;;;;;;5039451;28;20057;-81
2023/05/31 10:01:22;;;;;;;1.90;1.67;;;22.00;46.40;;;;;;5020965;28;20026;-81
2023/05/31 10:03:51;;;;;;;6.72;1.90;;;22.00;46.50;;;;;;5039540;28;20570;-80
2023/05/31 10:06:18;;;;;;;7.97;2.40;;;22.20;45.70;;;;;;5049307;28;20084;-82
2023/05/31 10:08:46;;;;;;;7.68;2.70;;;22.30;45.20;;;;;;5058084;28;20132;-82
2023/05/31 10:11:15;;;;;;;3.50;2.17;;;22.30;45.50;;;;;;5058553;28;20014;-81
2023/05/31 10:13:44;;;;;;;6.80;2.00;;;22.40;45.60;;;;;;5057470;28;20049;-81
2023/05/31 10:16:10;;;;;;;4.93;2.10;;;22.50;44.80;;;;;;5057853;28;20025;-82
2023/05/31 10:18:48;;;;;;;2.95;1.88;;;22.60;44.60;;;;;;5058609;28;20010;-80
2023/05/31 10:21:24;;;;;;;7.22;3.08;;;22.60;44.50;;;;;;5054108;28;20038;-82
2023/05/31 10:23:56;;;;;;;4.13;2.83;;;22.70;43.80;;;;;;5049781;28;20014;-81
2023/05/31 10:26:22;;;;;;;3.72;2.30;;;22.70;44.20;;;;;;5052219;28;20437;-80
2023/05/31 10:28:59;;;;;;;3.70;2.00;;;22.70;44.20;;;;;;5048429;28;20079;-82
2023/05/31 10:31:35;;;;;;;5.40;2.20;;;22.90;44.30;;;;;;5043357;28;20025;-81
2023/05/31 10:34:28;;;;;;;3.40;2.10;;;22.90;43.90;;;;;;5039456;28;20033;-82
2023/05/31 10:36:55;;;;;;;4.28;2.10;;;23.10;43.90;;;;;;5036942;28;20112;-81
2023/05/31 10:39:44;;;;;;;2.20;1.83;;;23.20;43.10;;;;;;5045611;28;20125;-81
2023/05/31 10:42:28;;;;;;;3.92;2.03;;;23.40;42.50;;;;;;5033349;28;20038;-80
2023/05/31 10:45:11;;;;;;;5.47;2.30;;;23.60;41.90;;;;;;5040732;28;20048;-81
2023/05/31 10:47:58;;;;;;;4.50;2.28;;;23.80;41.50;;;;;;5033434;28;20062;-79
2023/05/31 10:50:24;;;;;;;8.40;2.70;;;23.60;41.70;;;;;;5040660;28;20470;-81
2023/05/31 10:53:11;;;;;;;4.30;2.55;;;23.50;41.80;;;;;;5040856;28;20088;-82
2023/05/31 10:55:42;;;;;;;8.27;3.25;;;23.40;41.40;;;;;;5041296;28;20045;-82
2023/05/31 10:58:25;;;;;;;5.40;2.53;;;23.30;41.60;;;;;;5042164;28;20017;-81
2023/05/31 11:00:56;;;;;;;4.60;1.90;;;23.20;41.70;;;;;;5041888;28;20033;-82
2023/05/31 11:03:23;;;;;;;4.30;2.30;;;23.30;42.30;;;;;;5039798;28;20025;-82
2023/05/31 11:06:00;;;;;;;5.25;2.22;;;23.40;42.10;;;;;;5042467;28;20466;-81
2023/05/31 11:08:30;;;;;;;4.15;2.45;;;23.60;42.10;;;;;;5047385;28;20020;-81
2023/05/31 11:11:25;;;;;;;6.95;2.30;;;23.70;41.80;;;;;;5046002;28;20037;-81
2023/05/31 11:14:06;;;;;;;10.60;2.97;;;23.70;41.70;;;;;;5049494;28;20073;-81
2023/05/31 11:17:05;;;;;;;4.25;1.95;;;23.80;40.70;;;;;;5048876;28;20024;-80
2023/05/31 11:19:35;;;;;;;3.45;2.50;;;23.90;41.00;;;;;;5038549;28;20044;-81
2023/05/31 11:22:07;;;;;;;4.15;2.30;;;24.30;40.90;;;;;;5041361;28;20044;-81
2023/05/31 11:24:37;;;;;;;8.40;2.47;;;24.30;40.70;;;;;;5022445;28;20038;-81
2023/05/31 11:27:11;;;;;;;5.90;2.55;;;24.10;40.90;;;;;;5021473;28;20486;-81
2023/05/31 11:29:51;;;;;;;5.95;2.45;;;24.00;42.20;;;;;;5028643;28;20033;-81
2023/05/31 11:32:18;;;;;;;4.40;2.22;;;23.90;42.00;;;;;;5040707;28;20034;-82
2023/05/31 11:34:53;;;;;;;5.22;2.95;;;24.10;42.00;;;;;;5048446;28;20029;-81
2023/05/31 11:37:21;;;;;;;4.65;2.40;;;24.20;41.70;;;;;;5051824;28;20029;-80
2023/05/31 11:39:47;;;;;;;10.13;3.30;;;24.30;42.00;;;;;;5039191;28;20036;-82
2023/05/31 11:42:16;;;;;;;3.70;2.33;;;24.30;41.80;;;;;;5040040;28;20191;-82
2023/05/31 11:44:43;;;;;;;2.00;1.80;;;24.40;42.00;;;;;;5020365;28;20022;-81
2023/05/31 11:47:20;;;;;;;5.25;2.50;;;24.70;41.60;;;;;;5027669;28;20034;-81
2023/05/31 11:49:46;;;;;;;3.50;2.72;;;24.80;40.80;;;;;;5036636;28;20057;-81
2023/05/31 11:52:22;;;;;;;3.65;2.38;;;24.80;41.20;;;;;;5040169;28;20101;-82
2023/05/31 11:54:49;;;;;;;3.67;2.53;;;24.90;41.50;;;;;;5039608;28;20048;-82
2023/05/31 11:57:16;;;;;;;5.05;2.70;;;25.00;41.00;;;;;;5039044;28;20018;-82
2023/05/31 11:59:43;;;;;;;4.78;2.95;;;24.80;41.00;;;;;;5038482;28;20366;-82
2023/05/31 12:02:12;;;;;;;5.25;2.80;;;24.60;41.30;;;;;;5038291;28;20044;-81
2023/05/31 12:04:39;;;;;;;12.85;2.85;;;24.60;40.70;;;;;;5047207;28;20029;-81
2023/05/31 12:07:06;;;;;;;4.13;2.75;;;24.50;40.90;;;;;;5057908;28;20029;-82
2023/05/31 12:09:35;;;;;;;6.55;2.65;;;24.40;41.10;;;;;;5038766;28;20025;-81
2023/05/31 12:12:05;;;;;;;3.47;2.22;;;24.30;41.60;;;;;;5039492;28;20037;-81
2023/05/31 12:14:31;;;;;;;5.22;3.10;;;24.60;41.40;;;;;;5040805;28;20026;-81
2023/05/31 12:17:04;;;;;;;7.25;2.35;;;24.70;40.80;;;;;;5040050;28;20021;-82
2023/05/31 12:19:30;;;;;;;4.38;2.60;;;24.60;40.50;;;;;;5036455;28;20022;-80
2023/05/31 12:21:56;;;;;;;4.18;2.85;;;24.70;39.90;;;;;;5038572;28;20036;-79
2023/05/31 12:24:22;;;;;;;7.85;2.75;;;24.60;39.60;;;;;;5037243;28;20025;-81
2023/05/31 12:26:49;;;;;;;5.30;2.45;;;24.50;39.20;;;;;;5038263;28;20036;-82
2023/05/31 12:29:18;;;;;;;4.15;2.25;;;24.50;40.10;;;;;;5038630;28;20101;-82
2023/05/31 12:31:45;;;;;;;6.70;2.40;;;24.50;40.00;;;;;;5037663;28;20037;-82
2023/05/31 12:34:17;;;;;;;2.65;2.13;;;24.60;40.40;;;;;;5036990;28;20029;-81
2023/05/31 12:36:48;;;;;;;3.95;2.22;;;24.90;39.70;;;;;;5047018;28;20473;-81
2023/05/31 12:39:18;;;;;;;4.73;3.07;;;25.10;39.10;;;;;;5046136;28;20033;-82
2023/05/31 12:41:45;;;;;;;4.15;2.45;;;25.40;39.60;;;;;;5037441;28;20041;-81
2023/05/31 12:44:19;;;;;;;3.45;2.28;;;25.60;39.60;;;;;;5039612;28;20069;-82
2023/05/31 12:46:46;;;;;;;2.50;2.22;;;25.70;38.20;;;;;;5044723;28;20040;-80
2023/05/31 12:49:15;;;;;;;3.08;2.72;;;25.70;38.00;;;;;;5048738;28;20441;-82
2023/05/31 12:51:41;;;;;;;2.80;2.50;;;25.90;38.00;;;;;;5048075;28;20022;-82